Time;durP1;ratioP1;P1;durP2;ratioP2;P2;SDS_P1;SDS_P2;PMS_P1;PMS_P2;Temp;Humidity;BMP_temperature;BMP_pressure;BME280_temperature;BME280_humidity;BME280_pressure;Samples;Min_cycle;Max_cycle;Signal;HPM_P1;HPM_P2
2023/09/29 00:00:48;;;;;;;2.58;0.88;;;15.00;99.90;;;;;;5099340;28;20039;-72
2023/09/29 00:03:15;;;;;;;4.68;1.10;;;15.00;99.90;;;;;;5134378;27;20670;-72
2023/09/29 00:05:45;;;;;;;3.40;0.60;;;15.00;99.90;;;;;;5100765;28;20031;-72
2023/09/29 00:08:17;;;;;;;3.42;1.00;;;15.00;99.90;;;;;;5114389;28;20036;-72
2023/09/29 00:10:46;;;;;;;6.38;0.93;;;15.00;99.90;;;;;;5135545;27;20040;-72
2023/09/29 00:13:12;;;;;;;3.70;0.80;;;14.90;99.90;;;;;;5084544;28;20043;-72
2023/09/29 00:15:38;;;;;;;4.32;1.05;;;15.00;99.90;;;;;;5094560;28;20135;-72
2023/09/29 00:18:07;;;;;;;1.33;0.85;;;15.00;99.90;;;;;;5098615;28;20031;-72
2023/09/29 00:20:34;;;;;;;4.80;1.15;;;15.00;99.90;;;;;;5099639;27;20047;-72
2023/09/29 00:23:00;;;;;;;2.22;0.60;;;15.10;99.90;;;;;;5100902;28;20035;-72
2023/09/29 00:25:27;;;;;;;4.10;0.88;;;15.10;99.90;;;;;;5093458;28;20112;-72
2023/09/29 00:27:53;;;;;;;4.72;0.65;;;15.20;99.90;;;;;;5097584;28;20095;-72
2023/09/29 00:30:19;;;;;;;1.35;0.68;;;15.20;99.90;;;;;;5096125;28;20824;-72
2023/09/29 00:32:46;;;;;;;2.75;0.93;;;15.20;99.90;;;;;;5093462;28;20070;-72
2023/09/29 00:35:19;;;;;;;2.30;0.82;;;15.30;99.90;;;;;;5092513;28;20151;-72
2023/09/29 00:37:45;;;;;;;4.10;0.82;;;15.30;99.90;;;;;;5094867;28;20044;-72
2023/09/29 00:40:12;;;;;;;3.08;0.73;;;15.30;99.90;;;;;;5097556;28;20046;-72
2023/09/29 00:42:39;;;;;;;2.67;0.80;;;15.30;99.90;;;;;;5131111;27;20127;-72
2023/09/29 00:45:06;;;;;;;1.83;0.50;;;15.30;99.90;;;;;;5129889;27;20047;-72
2023/09/29 00:47:32;;;;;;;5.95;1.10;;;15.30;99.90;;;;;;5093408;28;20123;-72
2023/09/29 00:49:59;;;;;;;7.95;1.08;;;15.30;99.90;;;;;;5095022;28;20044;-72
2023/09/29 00:52:27;;;;;;;2.40;0.50;;;15.30;99.90;;;;;;5083190;28;20035;-72
2023/09/29 00:54:53;;;;;;;3.10;0.88;;;15.30;99.90;;;;;;5128852;27;20584;-72
2023/09/29 00:57:20;;;;;;;6.93;1.25;;;15.30;99.90;;;;;;5130568;27;20046;-72
2023/09/29 00:59:46;;;;;;;2.00;0.60;;;15.30;99.90;;;;;;5099302;28;20039;-72
2023/09/29 01:02:14;;;;;;;2.67;1.00;;;15.20;99.90;;;;;;5094712;28;20051;-72
2023/09/29 01:04:40;;;;;;;4.28;0.90;;;15.20;99.90;;;;;;5092159;28;20040;-72
2023/09/29 01:07:08;;;;;;;2.47;1.38;;;15.20;99.90;;;;;;5120597;27;20032;-72
2023/09/29 01:09:33;;;;;;;3.83;1.23;;;15.10;99.90;;;;;;5128089;27;20050;-72
2023/09/29 01:12:04;;;;;;;2.85;0.90;;;15.20;99.90;;;;;;5129566;27;20040;-72
2023/09/29 01:14:30;;;;;;;2.40;0.80;;;15.10;99.90;;;;;;5127408;27;20199;-72
2023/09/29 01:16:56;;;;;;;3.90;0.93;;;15.10;99.90;;;;;;5087526;28;20036;-72
2023/09/29 01:19:22;;;;;;;3.05;0.95;;;15.20;99.90;;;;;;5080787;28;20081;-72
2023/09/29 01:21:48;;;;;;;3.65;0.70;;;15.20;99.90;;;;;;5091156;28;20055;-72
2023/09/29 01:24:14;;;;;;;6.55;0.95;;;15.20;99.90;;;;;;5094177;28;20120;-72
2023/09/29 01:26:44;;;;;;;3.58;0.52;;;15.10;99.90;;;;;;5095702;28;20036;-72
2023/09/29 01:29:11;;;;;;;4.25;0.75;;;15.20;99.90;;;;;;5127363;27;20040;-73
2023/09/29 01:31:37;;;;;;;3.38;1.00;;;15.20;99.90;;;;;;5081421;28;20047;-73
2023/09/29 01:34:04;;;;;;;2.17;0.82;;;15.20;99.90;;;;;;5119789;27;20064;-73
2023/09/29 01:36:30;;;;;;;8.68;1.17;;;15.20;99.90;;;;;;5091904;28;20040;-72
2023/09/29 01:38:57;;;;;;;2.22;0.90;;;15.20;99.90;;;;;;5093459;28;20502;-72
2023/09/29 01:41:22;;;;;;;1.70;0.75;;;15.30;99.90;;;;;;5106497;28;20036;-73
2023/09/29 01:43:48;;;;;;;3.58;1.13;;;15.30;99.90;;;;;;5089153;28;20040;-72
2023/09/29 01:46:15;;;;;;;2.42;0.68;;;15.30;99.90;;;;;;5090159;28;20033;-72
2023/09/29 01:48:44;;;;;;;2.97;0.90;;;15.30;99.90;;;;;;5093361;28;20044;-72
2023/09/29 01:51:11;;;;;;;3.97;0.77;;;15.40;99.90;;;;;;5087091;28;20058;-71
2023/09/29 01:53:37;;;;;;;6.18;1.05;;;15.40;99.90;;;;;;5097729;28;20115;-72
2023/09/29 01:56:02;;;;;;;1.65;0.73;;;15.40;99.90;;;;;;5085718;28;20154;-72
2023/09/29 01:58:29;;;;;;;3.88;1.13;;;15.50;99.90;;;;;;5088515;28;20395;-72
2023/09/29 02:00:55;;;;;;;5.68;1.48;;;15.50;99.90;;;;;;5084528;28;20056;-72
2023/09/29 02:03:21;;;;;;;1.52;0.82;;;15.50;99.90;;;;;;5084643;28;20126;-72
2023/09/29 02:05:47;;;;;;;5.68;1.27;;;15.60;99.90;;;;;;5122947;27;20452;-72
2023/09/29 02:08:13;;;;;;;6.28;1.38;;;15.60;99.90;;;;;;5090184;28;20048;-72
2023/09/29 02:10:38;;;;;;;2.63;0.85;;;15.60;99.90;;;;;;5087684;28;20051;-72
2023/09/29 02:13:04;;;;;;;1.25;0.77;;;15.60;99.90;;;;;;5088798;28;20044;-72
2023/09/29 02:15:34;;;;;;;1.58;0.75;;;15.70;99.90;;;;;;5089296;28;20048;-72
2023/09/29 02:18:06;;;;;;;3.30;1.20;;;15.60;99.90;;;;;;5073546;28;20085;-72
2023/09/29 02:20:32;;;;;;;1.80;0.63;;;15.70;99.90;;;;;;5106890;28;20321;-72
2023/09/29 02:22:59;;;;;;;1.15;0.52;;;15.70;99.90;;;;;;5083505;28;20045;-73
2023/09/29 02:25:25;;;;;;;6.88;1.17;;;15.70;99.90;;;;;;5117804;28;20036;-72
2023/09/29 02:27:59;;;;;;;3.05;0.85;;;15.80;99.90;;;;;;5121831;28;20044;-72
2023/09/29 02:30:26;;;;;;;4.25;0.73;;;15.70;99.90;;;;;;5124405;28;20055;-72
2023/09/29 02:32:52;;;;;;;4.82;0.80;;;15.80;99.90;;;;;;5076428;28;20036;-72
2023/09/29 02:35:18;;;;;;;5.45;1.08;;;15.80;99.90;;;;;;5085797;28;20082;-72
2023/09/29 02:37:44;;;;;;;1.30;0.70;;;15.80;99.90;;;;;;5118566;28;20040;-72
2023/09/29 02:40:15;;;;;;;2.40;1.17;;;15.90;99.90;;;;;;5119610;28;20070;-72
2023/09/29 02:42:44;;;;;;;2.13;0.70;;;15.90;99.90;;;;;;5119436;28;20040;-72
2023/09/29 02:45:10;;;;;;;2.25;0.55;;;15.80;99.90;;;;;;5089721;28;20410;-72
2023/09/29 02:47:39;;;;;;;1.77;0.73;;;15.90;99.90;;;;;;5120621;28;20415;-72
2023/09/29 02:50:09;;;;;;;2.40;0.65;;;15.90;99.90;;;;;;5085183;28;20135;-71
2023/09/29 02:52:36;;;;;;;2.55;0.95;;;15.90;99.90;;;;;;5089494;28;20040;-71
2023/09/29 02:55:04;;;;;;;1.63;0.60;;;15.90;99.90;;;;;;5121396;28;20093;-72
2023/09/29 02:57:30;;;;;;;3.72;0.82;;;15.90;99.90;;;;;;5088603;28;20040;-72
2023/09/29 02:59:57;;;;;;;1.25;0.60;;;16.00;99.90;;;;;;5092013;28;20043;-72
2023/09/29 03:02:23;;;;;;;3.15;1.25;;;15.90;99.90;;;;;;5121592;27;20404;-72
2023/09/29 03:04:51;;;;;;;4.40;0.82;;;15.90;99.90;;;;;;5104848;28;20480;-72
2023/09/29 03:07:17;;;;;;;4.38;0.93;;;15.90;99.90;;;;;;5103933;28;20386;-72
2023/09/29 03:09:43;;;;;;;2.88;0.77;;;16.00;99.90;;;;;;5101869;28;20074;-72
2023/09/29 03:12:09;;;;;;;1.23;0.70;;;15.90;99.90;;;;;;5089659;28;20071;-72
2023/09/29 03:14:35;;;;;;;4.15;0.85;;;16.00;99.90;;;;;;5090302;28;20059;-72
2023/09/29 03:17:00;;;;;;;2.85;0.80;;;16.00;99.90;;;;;;5087199;28;20058;-72
2023/09/29 03:19:32;;;;;;;5.20;0.85;;;16.00;99.90;;;;;;5076970;28;20049;-72
2023/09/29 03:22:01;;;;;;;2.85;1.00;;;16.00;99.90;;;;;;5086417;28;20053;-72
2023/09/29 03:24:30;;;;;;;2.47;1.15;;;15.90;99.90;;;;;;5089636;28;20040;-72
2023/09/29 03:26:56;;;;;;;4.03;0.90;;;15.90;99.90;;;;;;5088929;28;20086;-72
2023/09/29 03:29:22;;;;;;;2.38;0.95;;;15.90;99.90;;;;;;5125749;27;20041;-72
2023/09/29 03:31:49;;;;;;;1.23;0.63;;;15.90;99.90;;;;;;5096527;28;20495;-72
2023/09/29 03:34:15;;;;;;;1.55;0.65;;;15.90;99.90;;;;;;5126349;27;20036;-72
2023/09/29 03:36:41;;;;;;;5.03;0.95;;;15.90;99.90;;;;;;5091581;28;20032;-72
2023/09/29 03:39:08;;;;;;;4.88;0.98;;;15.80;99.90;;;;;;5089911;28;20420;-72
2023/09/29 03:41:34;;;;;;;7.80;0.95;;;15.80;99.90;;;;;;5129608;27;20059;-72
2023/09/29 03:44:00;;;;;;;4.60;1.13;;;15.80;99.90;;;;;;5096241;28;20032;-73
2023/09/29 03:46:26;;;;;;;4.18;1.10;;;15.80;99.90;;;;;;5088356;28;20491;-73
2023/09/29 03:48:52;;;;;;;3.45;1.15;;;15.80;99.90;;;;;;5088629;28;20056;-73
2023/09/29 03:51:24;;;;;;;2.72;0.82;;;15.80;99.90;;;;;;5093841;28;20035;-72
2023/09/29 03:53:52;;;;;;;2.38;1.10;;;15.80;99.90;;;;;;5091501;28;20040;-71
2023/09/29 03:56:22;;;;;;;2.30;1.02;;;15.80;99.90;;;;;;5090563;28;20051;-72
2023/09/29 03:58:53;;;;;;;3.58;0.95;;;15.90;99.90;;;;;;5092214;28;20044;-72
2023/09/29 04:01:19;;;;;;;2.38;1.20;;;15.80;99.90;;;;;;5127053;27;20051;-72
2023/09/29 04:03:45;;;;;;;1.05;0.55;;;15.90;99.90;;;;;;5095617;28;20082;-72
2023/09/29 04:06:11;;;;;;;3.22;1.10;;;16.00;99.90;;;;;;5085756;28;20028;-72
2023/09/29 04:08:38;;;;;;;2.90;0.88;;;16.00;99.90;;;;;;5073122;28;20047;-72
2023/09/29 04:11:04;;;;;;;4.35;1.13;;;16.00;99.90;;;;;;5123317;27;20044;-72
2023/09/29 04:13:30;;;;;;;3.10;0.93;;;16.00;99.90;;;;;;5090908;28;20051;-72
2023/09/29 04:15:55;;;;;;;8.45;0.90;;;16.10;99.90;;;;;;5081408;28;20044;-72
2023/09/29 04:18:21;;;;;;;3.45;1.23;;;16.10;99.90;;;;;;5093049;28;20641;-72
2023/09/29 04:20:47;;;;;;;5.47;1.15;;;16.10;99.90;;;;;;5115753;27;20048;-72
2023/09/29 04:23:13;;;;;;;7.55;1.85;;;16.10;99.90;;;;;;5094563;28;20040;-72
2023/09/29 04:25:38;;;;;;;2.75;1.08;;;16.10;99.90;;;;;;5090696;28;20110;-72
2023/09/29 04:28:04;;;;;;;3.00;1.33;;;16.10;99.90;;;;;;5130049;27;20028;-72
2023/09/29 04:30:30;;;;;;;9.68;1.52;;;16.20;99.90;;;;;;5125828;27;20108;-72
2023/09/29 04:32:56;;;;;;;2.47;1.30;;;16.20;99.90;;;;;;5129775;27;20103;-72
2023/09/29 04:35:21;;;;;;;4.38;1.15;;;16.20;99.90;;;;;;5127688;27;20503;-72
2023/09/29 04:37:49;;;;;;;2.92;1.10;;;16.20;99.90;;;;;;5124249;27;20064;-72
2023/09/29 04:40:15;;;;;;;7.10;1.42;;;16.20;99.90;;;;;;5128259;27;20434;-72
2023/09/29 04:42:41;;;;;;;2.58;1.23;;;16.20;99.90;;;;;;5098164;28;20047;-72
2023/09/29 04:45:08;;;;;;;1.73;0.93;;;16.20;99.90;;;;;;5084585;28;20131;-72
2023/09/29 04:47:34;;;;;;;4.78;1.55;;;16.20;99.90;;;;;;5113237;28;20184;-72
2023/09/29 04:49:59;;;;;;;3.45;1.33;;;16.20;99.90;;;;;;5094347;28;20501;-72
2023/09/29 04:52:26;;;;;;;4.78;1.50;;;16.30;99.90;;;;;;5096849;28;20032;-72
2023/09/29 04:54:52;;;;;;;8.20;1.38;;;16.30;99.90;;;;;;5083836;28;20044;-72
2023/09/29 04:57:18;;;;;;;4.50;1.55;;;16.30;99.90;;;;;;5127946;27;20035;-72
2023/09/29 04:59:45;;;;;;;5.25;1.50;;;16.30;99.90;;;;;;5095340;28;20040;-72
2023/09/29 05:02:11;;;;;;;7.03;1.80;;;16.40;99.90;;;;;;5080618;28;20032;-72
2023/09/29 05:04:36;;;;;;;4.88;0.95;;;16.40;99.90;;;;;;5096946;28;20050;-72
2023/09/29 05:07:02;;;;;;;3.63;1.40;;;16.50;99.90;;;;;;5078621;28;20046;-72
2023/09/29 05:09:28;;;;;;;4.78;1.27;;;16.50;99.90;;;;;;5130406;27;20036;-72
2023/09/29 05:11:53;;;;;;;8.65;1.95;;;16.50;99.90;;;;;;5092629;28;20028;-72
2023/09/29 05:14:19;;;;;;;2.58;1.48;;;16.50;99.90;;;;;;5114186;28;20043;-72
2023/09/29 05:16:45;;;;;;;3.38;1.90;;;16.50;99.90;;;;;;5094707;28;20546;-72
2023/09/29 05:19:11;;;;;;;1.60;1.05;;;16.50;99.90;;;;;;5130867;27;20052;-72
2023/09/29 05:21:36;;;;;;;3.40;1.40;;;16.50;99.90;;;;;;5130274;27;20099;-72
2023/09/29 05:24:02;;;;;;;3.40;1.45;;;16.60;99.90;;;;;;5128020;27;20387;-72
2023/09/29 05:26:28;;;;;;;5.18;1.60;;;16.60;99.90;;;;;;5128009;27;20039;-72
2023/09/29 05:28:55;;;;;;;2.67;1.48;;;16.60;99.90;;;;;;5129852;27;20036;-72
2023/09/29 05:31:21;;;;;;;4.10;1.17;;;16.60;99.90;;;;;;5100490;28;20051;-72
2023/09/29 05:34:05;;;;;;;1.77;1.02;;;16.70;99.90;;;;;;5129272;27;20048;-70
2023/09/29 05:36:31;;;;;;;4.78;1.05;;;16.70;99.90;;;;;;5113408;27;20510;-68
2023/09/29 05:38:57;;;;;;;1.67;0.90;;;16.70;99.90;;;;;;5119541;27;20036;-69
2023/09/29 05:41:23;;;;;;;3.60;0.77;;;16.70;99.90;;;;;;5074556;28;20074;-69
2023/09/29 05:43:49;;;;;;;2.83;1.08;;;16.70;99.90;;;;;;5081224;28;20044;-69
2023/09/29 05:46:15;;;;;;;2.80;0.80;;;16.70;99.90;;;;;;5059777;28;20089;-70
2023/09/29 05:48:40;;;;;;;4.15;1.55;;;16.70;99.90;;;;;;5077933;28;20553;-69
2023/09/29 05:51:06;;;;;;;1.92;0.95;;;16.80;99.90;;;;;;5070349;28;20035;-70
2023/09/29 05:53:32;;;;;;;2.65;1.23;;;16.70;99.90;;;;;;5097020;28;20112;-69
2023/09/29 05:56:06;;;;;;;1.75;1.00;;;16.70;99.90;;;;;;5081539;28;20035;-69
2023/09/29 05:58:32;;;;;;;3.28;1.05;;;16.80;99.90;;;;;;5114570;27;20609;-69
2023/09/29 06:01:05;;;;;;;2.78;1.15;;;16.80;99.90;;;;;;5083266;27;20077;-69
2023/09/29 06:03:31;;;;;;;3.60;1.35;;;16.80;99.90;;;;;;5111490;27;20054;-69
2023/09/29 06:05:57;;;;;;;1.08;0.60;;;16.80;99.90;;;;;;5100833;28;20496;-70
2023/09/29 06:08:23;;;;;;;2.63;0.90;;;16.80;99.90;;;;;;5097728;28;20032;-69
2023/09/29 06:10:49;;;;;;;8.77;0.90;;;16.80;99.90;;;;;;5067068;28;20118;-69
2023/09/29 06:13:15;;;;;;;3.83;1.48;;;16.90;99.90;;;;;;5077760;28;20123;-70
2023/09/29 06:15:40;;;;;;;2.05;0.95;;;16.90;99.90;;;;;;5113664;27;20040;-70
2023/09/29 06:18:06;;;;;;;2.25;1.33;;;16.90;99.90;;;;;;5081020;28;20460;-70
2023/09/29 06:20:32;;;;;;;4.18;1.02;;;16.90;99.90;;;;;;5109415;28;20067;-69
2023/09/29 06:22:58;;;;;;;2.42;1.00;;;16.90;99.90;;;;;;5084131;28;20085;-70
2023/09/29 06:25:23;;;;;;;3.40;0.90;;;16.90;99.90;;;;;;5113754;28;20388;-70
2023/09/29 06:27:49;;;;;;;3.35;0.82;;;16.90;99.90;;;;;;5083166;28;20046;-70
2023/09/29 06:30:15;;;;;;;2.67;1.05;;;16.90;99.90;;;;;;5082287;28;20548;-70
2023/09/29 06:32:41;;;;;;;1.88;0.77;;;16.90;99.90;;;;;;5110473;28;20075;-70
2023/09/29 06:35:07;;;;;;;3.60;1.02;;;16.90;99.90;;;;;;5109635;28;20071;-71
2023/09/29 06:37:33;;;;;;;3.22;1.20;;;16.90;99.90;;;;;;5078120;28;20040;-70
2023/09/29 06:39:58;;;;;;;1.48;0.85;;;16.90;99.90;;;;;;5119999;28;20409;-70
2023/09/29 06:42:24;;;;;;;3.58;0.88;;;16.90;99.90;;;;;;5101416;28;20739;-70
2023/09/29 06:44:51;;;;;;;3.40;0.75;;;16.90;99.90;;;;;;5115901;28;20086;-70
2023/09/29 06:47:16;;;;;;;1.60;0.63;;;16.90;99.90;;;;;;5065999;28;20032;-70
2023/09/29 06:49:42;;;;;;;1.08;0.60;;;16.90;99.90;;;;;;5116544;28;20048;-69
2023/09/29 06:52:08;;;;;;;1.10;0.75;;;16.90;99.90;;;;;;5114481;28;20048;-70
2023/09/29 06:54:34;;;;;;;0.93;0.52;;;16.90;99.90;;;;;;5083157;28;20035;-70
2023/09/29 06:57:00;;;;;;;1.63;0.93;;;16.90;99.90;;;;;;5067771;28;20050;-70
2023/09/29 06:59:26;;;;;;;2.33;0.57;;;17.00;99.90;;;;;;5066113;28;20067;-70
2023/09/29 07:01:51;;;;;;;1.90;0.68;;;17.00;99.90;;;;;;5119436;28;20485;-70
2023/09/29 07:04:18;;;;;;;2.30;0.93;;;17.00;99.90;;;;;;5114900;27;20111;-69
2023/09/29 07:06:43;;;;;;;0.80;0.60;;;17.10;99.90;;;;;;5115878;27;20043;-68
2023/09/29 07:09:10;;;;;;;0.82;0.32;;;17.10;99.90;;;;;;5103631;28;20032;-68
2023/09/29 07:11:35;;;;;;;0.93;0.50;;;17.10;99.90;;;;;;5082567;28;20482;-69
2023/09/29 07:14:01;;;;;;;2.25;1.10;;;17.20;99.90;;;;;;5086686;28;20058;-69
2023/09/29 07:16:28;;;;;;;1.73;0.85;;;17.10;99.90;;;;;;5101765;28;20043;-71
2023/09/29 07:18:54;;;;;;;0.93;0.43;;;17.10;99.90;;;;;;5087019;28;20471;-71
2023/09/29 07:21:20;;;;;;;1.73;0.60;;;17.10;99.90;;;;;;5064858;28;20051;-70
2023/09/29 07:23:45;;;;;;;2.28;0.60;;;17.20;99.90;;;;;;5065654;28;20044;-68
2023/09/29 07:26:12;;;;;;;1.08;0.35;;;17.20;99.90;;;;;;5090307;28;20047;-70
2023/09/29 07:28:37;;;;;;;2.60;0.40;;;17.20;99.90;;;;;;5113146;27;20040;-69
2023/09/29 07:31:03;;;;;;;3.85;0.52;;;17.20;99.90;;;;;;5120208;27;20051;-69
2023/09/29 07:33:29;;;;;;;1.10;0.60;;;17.30;99.90;;;;;;5116597;27;20058;-69
2023/09/29 07:35:54;;;;;;;1.73;0.80;;;17.40;99.90;;;;;;5084955;28;20113;-69
2023/09/29 07:38:20;;;;;;;1.30;0.47;;;17.40;99.90;;;;;;5119591;27;20492;-69
2023/09/29 07:40:46;;;;;;;0.82;0.50;;;17.50;99.90;;;;;;5084474;28;20035;-70
2023/09/29 07:43:12;;;;;;;3.97;0.50;;;17.70;99.90;;;;;;5088915;28;20035;-70
2023/09/29 07:45:38;;;;;;;1.45;0.63;;;17.80;99.90;;;;;;5085067;28;20032;-69
2023/09/29 07:48:04;;;;;;;1.55;0.40;;;18.10;99.90;;;;;;5099494;27;20032;-69
2023/09/29 07:50:30;;;;;;;2.47;0.77;;;18.30;99.90;;;;;;5079099;28;20134;-69
2023/09/29 07:52:55;;;;;;;0.80;0.30;;;18.40;99.90;;;;;;5085694;28;20043;-70
2023/09/29 07:55:21;;;;;;;1.20;0.70;;;18.50;99.90;;;;;;5075646;28;20267;-69
2023/09/29 07:57:47;;;;;;;1.00;0.50;;;18.60;99.90;;;;;;5118009;27;20055;-70
2023/09/29 08:00:16;;;;;;;1.52;0.40;;;18.90;99.90;;;;;;5120225;27;20058;-69
2023/09/29 08:02:46;;;;;;;0.63;0.40;;;19.20;99.90;;;;;;5116636;27;20071;-69
2023/09/29 08:05:15;;;;;;;1.73;0.52;;;19.40;99.90;;;;;;5079939;28;20079;-69
2023/09/29 08:07:41;;;;;;;2.88;0.68;;;19.70;99.90;;;;;;5113377;27;20040;-68
2023/09/29 08:10:09;;;;;;;0.55;0.30;;;20.20;99.90;;;;;;5085257;28;20477;-69
2023/09/29 08:12:36;;;;;;;0.85;0.30;;;20.60;99.90;;;;;;5061636;28;20275;-69
2023/09/29 08:15:05;;;;;;;1.05;0.43;;;21.00;99.90;;;;;;5119969;27;20487;-69
2023/09/29 08:17:31;;;;;;;1.35;0.40;;;21.40;99.90;;;;;;5079742;28;20039;-69
2023/09/29 08:19:57;;;;;;;0.73;0.43;;;21.50;99.90;;;;;;5062916;28;20075;-70
2023/09/29 08:22:23;;;;;;;1.50;0.60;;;21.40;99.90;;;;;;5100242;28;20135;-70
2023/09/29 08:24:49;;;;;;;2.78;0.40;;;21.20;99.90;;;;;;5082569;28;20050;-69
2023/09/29 08:27:14;;;;;;;0.70;0.30;;;21.10;99.90;;;;;;5083772;28;20071;-70
2023/09/29 08:29:40;;;;;;;1.23;0.30;;;21.20;99.90;;;;;;5115545;27;20353;-69
2023/09/29 08:32:06;;;;;;;0.60;0.30;;;21.20;99.90;;;;;;5079485;28;20343;-71
2023/09/29 08:34:34;;;;;;;2.05;0.50;;;21.40;99.90;;;;;;5121520;27;20035;-69
2023/09/29 08:37:00;;;;;;;1.00;0.43;;;21.40;99.90;;;;;;5065435;28;20036;-69
2023/09/29 08:39:25;;;;;;;0.82;0.25;;;21.30;99.90;;;;;;5081393;28;20567;-69
2023/09/29 08:42:04;;;;;;;0.75;0.47;;;21.50;99.90;;;;;;5082964;28;20104;-69
2023/09/29 08:44:32;;;;;;;1.13;0.35;;;22.10;99.90;;;;;;5114243;27;20040;-69
2023/09/29 08:47:01;;;;;;;1.10;0.22;;;22.40;99.90;;;;;;5087277;28;20100;-71
2023/09/29 08:49:29;;;;;;;0.38;0.17;;;22.40;99.90;;;;;;5084640;28;20040;-70
2023/09/29 08:51:57;;;;;;;0.82;0.25;;;22.40;99.90;;;;;;5081927;28;20139;-70
2023/09/29 08:54:25;;;;;;;1.15;0.30;;;22.70;99.90;;;;;;5120700;27;20093;-70
2023/09/29 08:56:51;;;;;;;0.82;0.20;;;23.20;99.90;;;;;;5117960;27;20051;-70
2023/09/29 08:59:17;;;;;;;1.98;0.30;;;23.50;99.90;;;;;;5079151;28;20032;-70
2023/09/29 09:01:43;;;;;;;1.00;0.30;;;23.80;99.90;;;;;;5083012;28;20676;-70
2023/09/29 09:04:09;;;;;;;1.45;0.50;;;24.10;99.90;;;;;;5118711;27;20032;-70
2023/09/29 09:06:35;;;;;;;0.35;0.17;;;24.40;99.90;;;;;;5102372;28;20043;-70
2023/09/29 09:09:00;;;;;;;0.75;0.20;;;24.60;99.90;;;;;;5115607;27;20040;-71
2023/09/29 09:11:27;;;;;;;1.40;0.63;;;24.70;99.90;;;;;;5118053;27;20063;-71
2023/09/29 09:14:04;;;;;;;0.85;0.40;;;24.50;99.90;;;;;;5112756;27;20054;-70
2023/09/29 09:16:36;;;;;;;0.30;0.10;;;24.10;99.90;;;;;;5118191;27;20402;-71
2023/09/29 09:19:09;;;;;;;0.93;0.40;;;23.70;99.90;;;;;;5113335;27;20464;-71
2023/09/29 09:21:35;;;;;;;0.75;0.28;;;23.50;99.90;;;;;;5082515;28;20044;-70
2023/09/29 09:24:00;;;;;;;0.77;0.25;;;23.20;99.90;;;;;;5079431;28;20047;-70
2023/09/29 09:26:28;;;;;;;0.80;0.43;;;22.90;99.90;;;;;;5083497;28;20082;-70
2023/09/29 09:28:54;;;;;;;0.52;0.20;;;22.70;99.90;;;;;;5087154;28;20031;-71
2023/09/29 09:31:20;;;;;;;0.65;0.30;;;22.60;99.90;;;;;;5116688;27;20083;-70
2023/09/29 09:33:53;;;;;;;0.45;0.13;;;22.50;99.90;;;;;;5069394;28;20197;-71
2023/09/29 09:36:19;;;;;;;0.60;0.30;;;22.60;99.90;;;;;;5080735;28;20088;-70
2023/09/29 09:38:47;;;;;;;0.77;0.20;;;22.50;99.90;;;;;;5118848;27;20035;-71
2023/09/29 09:41:16;;;;;;;2.30;0.50;;;22.40;99.90;;;;;;5117309;27;20158;-70
2023/09/29 09:43:43;;;;;;;0.40;0.13;;;22.30;99.90;;;;;;5117793;27;20100;-70
2023/09/29 09:46:12;;;;;;;0.95;0.20;;;22.20;99.90;;;;;;5066447;28;20028;-70
2023/09/29 09:49:08;;;;;;;0.98;0.30;;;22.10;99.90;;;;;;5082294;28;20036;-72
2023/09/29 09:51:38;;;;;;;0.50;0.30;;;21.90;99.90;;;;;;5079043;28;20398;-71
2023/09/29 09:54:08;;;;;;;0.30;0.20;;;21.80;99.90;;;;;;5082951;28;20058;-71
2023/09/29 09:56:51;;;;;;;0.40;0.20;;;21.90;99.90;;;;;;5114620;27;20039;-71
2023/09/29 09:59:18;;;;;;;0.38;0.15;;;21.80;99.90;;;;;;5077562;28;20465;-71
2023/09/29 10:01:45;;;;;;;3.85;0.40;;;21.70;99.90;;;;;;5111676;27;20044;-68
2023/09/29 10:04:13;;;;;;;0.20;0.10;;;21.70;99.90;;;;;;5084504;28;20142;-69
2023/09/29 10:06:43;;;;;;;1.15;0.43;;;21.70;99.90;;;;;;5114949;27;20103;-69
2023/09/29 10:09:11;;;;;;;0.20;0.10;;;21.60;99.90;;;;;;5095003;28;20028;-69
2023/09/29 10:11:40;;;;;;;1.42;0.55;;;21.60;99.90;;;;;;5064189;28;20096;-69
2023/09/29 10:14:08;;;;;;;0.95;0.35;;;21.60;99.90;;;;;;5081200;28;20040;-70
2023/09/29 10:16:35;;;;;;;1.38;0.20;;;21.60;99.90;;;;;;5066316;28;20436;-70
2023/09/29 10:19:12;;;;;;;0.63;0.28;;;21.60;99.90;;;;;;5118943;27;20104;-70
2023/09/29 10:21:45;;;;;;;0.47;0.25;;;21.60;99.90;;;;;;5111612;28;20468;-70
2023/09/29 10:24:23;;;;;;;0.65;0.35;;;21.50;99.90;;;;;;5067943;28;20032;-70
2023/09/29 10:26:48;;;;;;;1.13;0.30;;;21.50;99.90;;;;;;5081218;28;20057;-70
2023/09/29 10:29:28;;;;;;;1.02;0.20;;;21.40;99.90;;;;;;5081111;28;20039;-70
2023/09/29 10:32:13;;;;;;;0.68;0.30;;;21.30;99.90;;;;;;5116491;27;20041;-70
2023/09/29 10:34:40;;;;;;;0.73;0.28;;;21.10;99.90;;;;;;5078887;28;20139;-70
2023/09/29 10:37:06;;;;;;;1.80;0.32;;;21.10;99.90;;;;;;5079098;28;20122;-70
2023/09/29 10:39:36;;;;;;;0.60;0.30;;;21.00;99.90;;;;;;5103030;28;20048;-70
2023/09/29 10:42:15;;;;;;;1.48;0.32;;;21.00;99.90;;;;;;5082773;28;20317;-70
2023/09/29 10:44:55;;;;;;;0.60;0.32;;;20.90;99.90;;;;;;5087975;28;20039;-70
2023/09/29 10:47:34;;;;;;;1.15;0.45;;;20.90;99.90;;;;;;5086365;28;20112;-70
2023/09/29 10:50:09;;;;;;;0.88;0.30;;;20.90;99.90;;;;;;5122549;27;20040;-70
2023/09/29 10:52:35;;;;;;;1.40;0.47;;;20.90;99.90;;;;;;5083734;28;20263;-70
2023/09/29 10:55:04;;;;;;;3.17;0.38;;;21.00;99.90;;;;;;5086404;28;20081;-70
2023/09/29 10:57:30;;;;;;;1.00;0.40;;;21.20;99.90;;;;;;5117785;27;20048;-69
2023/09/29 11:00:01;;;;;;;0.40;0.30;;;21.40;99.90;;;;;;5088002;28;20200;-69
2023/09/29 11:02:32;;;;;;;1.75;0.40;;;21.50;99.90;;;;;;5088619;28;20516;-71
2023/09/29 11:05:09;;;;;;;1.17;0.38;;;21.70;99.90;;;;;;5108144;28;20092;-70
2023/09/29 11:07:51;;;;;;;3.13;1.02;;;21.70;99.90;;;;;;5121640;27;20036;-69
2023/09/29 11:10:18;;;;;;;1.48;0.32;;;21.60;99.90;;;;;;5122533;27;20047;-70
2023/09/29 11:12:47;;;;;;;1.27;0.25;;;21.50;99.90;;;;;;5087033;28;20043;-70
2023/09/29 11:15:15;;;;;;;2.45;0.35;;;21.40;99.90;;;;;;5090942;28;20492;-70
2023/09/29 11:17:44;;;;;;;1.70;0.40;;;21.20;99.90;;;;;;5118021;27;20051;-70
2023/09/29 11:20:16;;;;;;;1.15;0.40;;;21.10;99.90;;;;;;5105437;28;20055;-69
2023/09/29 11:22:43;;;;;;;1.60;0.47;;;21.00;99.90;;;;;;5084604;28;20104;-69
2023/09/29 11:25:19;;;;;;;0.52;0.30;;;21.10;99.90;;;;;;5115714;27;20135;-69
2023/09/29 11:27:52;;;;;;;2.15;0.50;;;21.10;99.90;;;;;;5081497;28;20039;-70
2023/09/29 11:30:24;;;;;;;0.57;0.32;;;21.00;99.90;;;;;;5085419;28;20043;-70
2023/09/29 11:32:50;;;;;;;2.15;0.60;;;20.90;99.90;;;;;;5122718;27;20043;-70
2023/09/29 11:35:16;;;;;;;0.63;0.35;;;20.90;99.90;;;;;;5095679;28;20071;-69
2023/09/29 11:37:43;;;;;;;1.23;0.47;;;20.90;99.90;;;;;;5086115;28;20094;-70
2023/09/29 11:40:12;;;;;;;1.10;0.30;;;20.90;99.90;;;;;;5083372;28;20036;-70
2023/09/29 11:42:39;;;;;;;1.52;0.45;;;21.10;99.90;;;;;;5086748;28;20050;-70
2023/09/29 11:45:08;;;;;;;2.63;0.50;;;21.20;99.90;;;;;;5081183;28;20437;-69
2023/09/29 11:47:44;;;;;;;1.65;0.57;;;21.20;99.90;;;;;;5117243;27;20101;-70
2023/09/29 11:50:11;;;;;;;2.30;0.40;;;21.30;99.90;;;;;;5082124;28;20404;-70
2023/09/29 11:52:39;;;;;;;1.15;0.32;;;21.40;99.90;;;;;;5086061;28;20083;-70
2023/09/29 11:55:11;;;;;;;0.95;0.47;;;21.50;99.90;;;;;;5115070;27;20048;-71
2023/09/29 11:57:40;;;;;;;1.10;0.40;;;21.60;99.90;;;;;;5083443;28;20400;-72
2023/09/29 12:00:10;;;;;;;3.70;0.63;;;21.70;99.90;;;;;;5118901;27;20044;-72
2023/09/29 12:02:37;;;;;;;2.05;0.60;;;21.80;99.90;;;;;;5083924;28;20419;-70
2023/09/29 12:05:04;;;;;;;1.42;0.43;;;21.90;99.90;;;;;;5116832;27;20039;-71
2023/09/29 12:07:33;;;;;;;1.70;0.40;;;21.90;99.90;;;;;;5082721;28;20043;-71
2023/09/29 12:09:59;;;;;;;0.80;0.30;;;21.90;99.90;;;;;;5116979;27;20043;-71
2023/09/29 12:12:26;;;;;;;0.93;0.65;;;21.90;99.90;;;;;;5064981;28;20042;-71
2023/09/29 12:14:54;;;;;;;1.02;0.47;;;21.90;99.90;;;;;;5081279;28;20047;-71
2023/09/29 12:17:25;;;;;;;1.17;0.43;;;21.80;99.90;;;;;;5083724;28;20054;-70
2023/09/29 12:19:51;;;;;;;1.65;0.50;;;21.80;99.90;;;;;;5117194;27;20461;-71
2023/09/29 12:22:18;;;;;;;0.90;0.40;;;21.70;99.90;;;;;;5084196;28;20050;-70
2023/09/29 12:24:44;;;;;;;0.98;0.40;;;21.60;99.90;;;;;;5117386;27;20032;-70
2023/09/29 12:27:10;;;;;;;2.50;0.63;;;21.50;99.90;;;;;;5084132;28;20077;-69
2023/09/29 12:29:36;;;;;;;1.65;0.40;;;21.40;99.90;;;;;;5120769;27;20069;-70
2023/09/29 12:32:02;;;;;;;2.10;0.60;;;21.20;99.90;;;;;;5101114;27;20039;-69
2023/09/29 12:34:32;;;;;;;0.93;0.63;;;21.00;99.90;;;;;;5078433;28;20334;-69
2023/09/29 12:36:59;;;;;;;1.20;0.57;;;20.90;99.90;;;;;;5113312;27;20035;-69
2023/09/29 12:39:25;;;;;;;2.50;0.80;;;20.70;99.90;;;;;;5120002;27;20460;-67
2023/09/29 12:41:51;;;;;;;4.05;1.00;;;20.50;99.90;;;;;;5086570;28;20074;-67
2023/09/29 12:44:17;;;;;;;5.47;0.40;;;20.30;99.90;;;;;;5101627;28;20044;-66
2023/09/29 12:46:44;;;;;;;0.65;0.38;;;20.00;99.90;;;;;;5099433;28;20455;-66
2023/09/29 12:49:10;;;;;;;1.20;0.32;;;19.80;99.90;;;;;;5100659;28;20714;-67